SBJU/JDO METAR and TAF weather

Enter ICAO airport designator
Station Type Date Time Source
SBJU METAR 2020/01/20 21:00 UTC NOAA

SBJU 202100Z 32003KT 9999 SCT020 28/22 Q1012


Station Type Date Time Source
SBJU Decoded METAR 2020/01/20 21:00 UTC NOAA

Station name not available
Jan 20, 2020 - 04:00 PM EST / 2020.01.20 2100 UTC
Wind: from the NW (320 degrees) at 3 MPH (3 KT):0
Visibility: greater than 7 mile(s):0
Sky conditions: partly cloudy
Temperature: 82 F (28 C)
Dew Point: 71 F (22 C)
Relative Humidity: 69%
Pressure (altimeter): 29.88 in. Hg (1012 hPa)
ob: SBJU 202100Z 32003KT 9999 SCT020 28/22 Q1012
cycle: 21

Station Type Date Time Source
SBJU TAF 2011/11/01 00:05 UTC NOAA

TAF SBJU 012200Z 0200/0212 00000KT 9999 SCT020 TX28/0200Z TN24/0207Z
BECMG 0210/0212 06005KT
RMK PCE

Example: see airport list